Hixton, WI

8:25 AM CDT on August 31, 2015 (GMT -0500)
Black River Falls Area | | Change Station
CLOSE
Current Station
Airport
Location: Black River Falls,
Elevation: 837 ft
Nearby Weather Stations

Elev 837 ft 44.25 °N, 90.86 °W | Updated 30 minutes ago

Overcast
Overcast
61 °F
Feels Like 61 °F
N
0
Wind Variable Wind from North

Today
High -- | Low -- °F
--% Chance of Precip.
Yesterday
High -- | Low -- °F
Precip. -- in
6:25 AM 7:42 PM
Waning Gibbous, 95% visible
Pressure 30.01 in
Visibility 4.0 miles
Clouds Overcast 900 ft
Dew Point 61 °F
Humidity 100%
Rainfall 0.00 in
Snow Depth Not available.
UV 0 out of 12
Pollen 10.60 out of 12
Air Quality Not available.
Flu Activity Not available.
METAR KBCK 311255Z AUTO 00000KT 4SM BR OVC009 16/16 A3001 RMK AO2 T01600160
Pressure 30.01 in
Visibility 4.0 miles
Clouds Overcast 900 ft
Dew Point 61 °F
Humidity 100%
Rainfall 0.00 in
Snow Depth Not available.
UV 0 out of 12
Pollen 10.60 out of 12
Air Quality Not available.
Flu Activity Not available.
METAR KBCK 311255Z AUTO 00000KT 4SM BR OVC009 16/16 A3001 RMK AO2 T01600160

10-Day Weather Forecast

×

Almanac

Astronomy

Aug. 31, 2015 Rise Set
Actual Time
Civil Twilight
Nautical Twilight
Astronomical Twilight
Moon
Length of Visible Light
Length of Day
Tomorrow will be .
, % of the Moon is Illuminated

Today's Extremes

State Highs State Lows

Community

WunderPhotos

Upload Photos

1,851,231 photos uploaded!

WunderBlogs® & News

Nearby

Air Quality

  Air Quality AQ Index Pollutant
Not available.

Snow Depth

Station Depth Elevation

Earthquake Activity

City Distance Mag. Time & Date
Minimum magnitude displayed is 2.5.

Coastal Water Temperatures

Place Temperature

Stations

Nearby Weather Stations

Station Location Temp. Windchill Dew Point Humidity Wind Precip. Elev Updated Type